createdAt,value
2023-01-18T00:01:05.373Z,39.88
2023-01-18T00:03:33.860Z,39.96
2023-01-18T00:06:02.264Z,40.01
2023-01-18T00:08:30.671Z,39.80
2023-01-18T00:11:12.663Z,39.74
2023-01-18T00:13:40.055Z,39.97
2023-01-18T00:16:11.413Z,40.12
2023-01-18T00:18:38.482Z,39.95
2023-01-18T00:21:08.760Z,39.99
2023-01-18T00:23:36.685Z,40.09
2023-01-18T00:26:09.231Z,39.99
2023-01-18T00:28:36.836Z,39.90
2023-01-18T00:31:15.714Z,39.92
2023-01-18T00:33:45.977Z,40.14
2023-01-18T00:36:14.670Z,39.88
2023-01-18T00:38:41.987Z,40.07
2023-01-18T00:41:09.125Z,40.16
2023-01-18T00:43:39.271Z,40.29
2023-01-18T00:46:08.312Z,40.17
2023-01-18T00:48:35.970Z,40.21
2023-01-18T00:51:03.174Z,40.22
2023-01-18T00:53:30.361Z,40.01
2023-01-18T00:55:57.256Z,40.52
2023-01-18T00:58:24.233Z,40.49
2023-01-18T01:00:53.011Z,40.66
2023-01-18T01:03:21.108Z,40.56
2023-01-18T01:06:06.758Z,40.50
2023-01-18T01:08:34.128Z,40.92
2023-01-18T01:11:12.375Z,40.82
2023-01-18T01:13:57.837Z,40.81
2023-01-18T01:16:43.668Z,40.86
2023-01-18T01:19:29.229Z,41.04
2023-01-18T01:22:14.893Z,41.17
2023-01-18T01:25:00.580Z,41.41
2023-01-18T01:27:27.623Z,41.52
2023-01-18T01:29:54.529Z,41.64
2023-01-18T01:32:21.603Z,41.83
2023-01-18T01:34:53.172Z,41.93
2023-01-18T01:37:20.224Z,42.17
2023-01-18T01:39:47.126Z,42.38
2023-01-18T01:42:14.106Z,42.45
2023-01-18T01:44:45.499Z,42.53
2023-01-18T01:47:41.391Z,43.04
2023-01-18T01:50:17.457Z,42.92
2023-01-18T01:52:47.547Z,42.73
2023-01-18T01:55:29.577Z,43.38
2023-01-18T01:58:11.228Z,42.77
2023-01-18T02:00:38.234Z,42.58
2023-01-18T02:03:10.946Z,42.95
2023-01-18T02:05:47.672Z,43.05
2023-01-18T02:08:22.760Z,42.85
2023-01-18T02:10:51.434Z,43.05
2023-01-18T02:13:21.151Z,42.93
2023-01-18T02:16:19.037Z,43.09
2023-01-18T02:19:18.509Z,43.16
2023-01-18T02:22:27.134Z,43.69
2023-01-18T02:25:16.928Z,43.72
2023-01-18T02:27:50.586Z,43.64
2023-01-18T02:30:31.069Z,43.85
2023-01-18T02:33:33.017Z,44.00
2023-01-18T02:36:05.825Z,43.94
2023-01-18T02:38:45.082Z,44.26
2023-01-18T02:41:21.073Z,43.99
2023-01-18T02:44:10.062Z,44.01
2023-01-18T02:46:38.985Z,44.27
2023-01-18T02:49:18.398Z,44.24
2023-01-18T02:51:45.277Z,44.12
2023-01-18T02:54:13.300Z,44.44
2023-01-18T02:56:47.350Z,44.30
2023-01-18T02:59:50.752Z,44.57
2023-01-18T03:02:21.064Z,44.74
2023-01-18T03:04:56.618Z,44.47
2023-01-18T03:07:29.245Z,44.42
2023-01-18T03:09:58.654Z,44.67
2023-01-18T03:12:46.627Z,45.09
2023-01-18T03:15:44.474Z,45.30
2023-01-18T03:18:16.744Z,45.02
2023-01-18T03:20:49.922Z,45.26
2023-01-18T03:23:41.378Z,44.96
2023-01-18T03:26:09.825Z,44.69
2023-01-18T03:28:59.078Z,44.70
2023-01-18T03:32:14.065Z,44.88
2023-01-18T03:34:53.740Z,45.17
2023-01-18T03:37:33.798Z,44.78
2023-01-18T03:40:11.306Z,44.88
2023-01-18T03:42:48.530Z,45.05
2023-01-18T03:45:30.810Z,45.26
2023-01-18T03:47:58.146Z,45.21
2023-01-18T03:50:33.392Z,45.34
2023-01-18T03:53:10.017Z,45.80
2023-01-18T03:56:04.901Z,46.16
2023-01-18T03:58:36.072Z,45.58
2023-01-18T04:01:05.225Z,45.16
2023-01-18T04:03:33.389Z,45.59
2023-01-18T04:06:03.404Z,45.64
2023-01-18T04:08:30.363Z,45.67
2023-01-18T04:10:57.289Z,45.40
2023-01-18T04:13:24.348Z,45.67
2023-01-18T04:15:51.360Z,45.30
2023-01-18T04:18:18.393Z,45.09
2023-01-18T04:20:45.307Z,45.07
2023-01-18T04:23:12.389Z,44.89
2023-01-18T04:25:41.133Z,44.58
2023-01-18T04:28:08.362Z,44.64
2023-01-18T04:30:35.314Z,44.88
2023-01-18T04:33:02.399Z,44.72
2023-01-18T04:35:29.431Z,44.52
2023-01-18T04:37:56.380Z,44.52
2023-01-18T04:40:23.229Z,44.83
2023-01-18T04:42:54.434Z,44.85
2023-01-18T04:45:21.711Z,44.61
2023-01-18T04:47:48.801Z,44.80
2023-01-18T04:50:16.080Z,44.54
2023-01-18T04:52:43.184Z,44.55
2023-01-18T04:55:16.002Z,44.72
2023-01-18T04:57:44.151Z,44.71
2023-01-18T05:00:13.444Z,44.68
2023-01-18T05:02:40.574Z,45.00
2023-01-18T05:05:08.878Z,45.16
2023-01-18T05:07:35.885Z,44.81
2023-01-18T05:10:04.320Z,44.95
2023-01-18T05:12:31.283Z,44.99
2023-01-18T05:14:58.249Z,45.14
2023-01-18T05:17:30.677Z,45.05
2023-01-18T05:19:57.588Z,45.27
2023-01-18T05:22:24.551Z,45.15
2023-01-18T05:24:51.577Z,45.37
2023-01-18T05:27:18.604Z,45.64
2023-01-18T05:29:48.403Z,45.91
2023-01-18T05:32:15.431Z,45.39
2023-01-18T05:34:42.617Z,45.44
2023-01-18T05:37:10.301Z,45.69
2023-01-18T05:39:37.821Z,45.61
2023-01-18T05:42:05.807Z,45.53
2023-01-18T05:44:33.273Z,46.00
2023-01-18T05:47:00.363Z,46.09
2023-01-18T05:49:29.210Z,46.05
2023-01-18T05:51:56.714Z,46.11
2023-01-18T05:54:23.752Z,46.00
2023-01-18T05:56:50.763Z,46.22
2023-01-18T05:59:17.720Z,46.09
2023-01-18T06:01:44.685Z,46.08
2023-01-18T06:04:11.705Z,46.22
2023-01-18T06:06:38.620Z,46.15
2023-01-18T06:09:05.618Z,46.02
2023-01-18T06:11:32.635Z,46.54
2023-01-18T06:13:59.823Z,46.28
2023-01-18T06:16:27.194Z,46.27
2023-01-18T06:18:54.125Z,46.46
2023-01-18T06:21:21.503Z,46.16
2023-01-18T06:23:48.406Z,46.17
2023-01-18T06:26:15.417Z,46.26
2023-01-18T06:28:42.317Z,46.48
2023-01-18T06:31:10.598Z,46.28
2023-01-18T06:33:37.820Z,46.33
2023-01-18T06:36:06.058Z,46.43
2023-01-18T06:38:33.138Z,46.69
2023-01-18T06:41:00.163Z,46.56
2023-01-18T06:43:27.179Z,46.73
2023-01-18T06:45:57.830Z,46.70
2023-01-18T06:48:26.798Z,46.82
2023-01-18T06:50:57.412Z,46.96
2023-01-18T06:53:24.730Z,46.80
2023-01-18T06:55:58.580Z,47.21
2023-01-18T06:58:35.291Z,46.93
2023-01-18T07:01:03.078Z,47.14
2023-01-18T07:03:31.768Z,47.05
2023-01-18T07:06:00.542Z,47.23
2023-01-18T07:08:31.005Z,47.25
2023-01-18T07:10:59.565Z,47.22
2023-01-18T07:13:27.254Z,47.69
2023-01-18T07:15:57.976Z,47.38
2023-01-18T07:18:26.659Z,47.42
2023-01-18T07:21:07.212Z,47.75
2023-01-18T07:23:36.436Z,47.51
2023-01-18T07:26:05.655Z,47.14
2023-01-18T07:28:33.781Z,47.25
2023-01-18T07:31:01.289Z,46.93
2023-01-18T07:33:28.833Z,46.40
2023-01-18T07:35:57.276Z,46.43
2023-01-18T07:38:25.231Z,46.47
2023-01-18T07:41:02.420Z,46.47
2023-01-18T07:43:30.837Z,46.74
2023-01-18T07:46:00.921Z,46.24
2023-01-18T07:48:29.011Z,45.68
2023-01-18T07:50:58.044Z,44.88
2023-01-18T07:53:26.239Z,44.11
2023-01-18T07:55:54.218Z,43.53
2023-01-18T07:58:21.724Z,43.12
2023-01-18T08:00:48.665Z,41.45
2023-01-18T08:03:17.333Z,40.35
2023-01-18T08:05:45.217Z,39.15
2023-01-18T08:08:17.707Z,37.12
2023-01-18T08:10:45.089Z,36.83
2023-01-18T08:13:12.191Z,35.48
2023-01-18T08:15:40.880Z,34.15
2023-01-18T08:18:09.051Z,32.81
2023-01-18T08:20:36.347Z,32.11
2023-01-18T08:23:04.195Z,30.89
2023-01-18T08:25:33.696Z,30.61
2023-01-18T08:28:02.082Z,29.64
2023-01-18T08:30:35.179Z,28.59
2023-01-18T08:33:03.328Z,28.59
2023-01-18T08:35:33.266Z,27.68
2023-01-18T08:38:01.239Z,27.52
2023-01-18T08:40:28.988Z,26.83
2023-01-18T08:42:59.809Z,25.50
2023-01-18T08:45:31.134Z,25.49
2023-01-18T08:48:02.536Z,25.47
2023-01-18T08:50:33.660Z,25.13
2023-01-18T08:53:01.167Z,24.28
2023-01-18T08:55:29.908Z,23.97
2023-01-18T08:57:59.222Z,23.19
2023-01-18T09:00:30.313Z,23.59
2023-01-18T09:02:58.497Z,24.15
2023-01-18T09:05:27.275Z,25.07
2023-01-18T09:07:55.728Z,26.02
2023-01-18T09:10:22.916Z,26.99
2023-01-18T09:12:52.758Z,28.53
2023-01-18T09:15:20.692Z,28.05
2023-01-18T09:17:47.552Z,27.08
2023-01-18T09:20:16.586Z,26.08
2023-01-18T09:22:47.990Z,24.86
2023-01-18T09:25:15.551Z,25.27
2023-01-18T09:27:42.707Z,25.86
2023-01-18T09:30:10.221Z,26.58
2023-01-18T09:32:37.211Z,27.95
2023-01-18T09:35:06.133Z,28.92
2023-01-18T09:37:33.015Z,29.72
2023-01-18T09:40:00.545Z,28.65
2023-01-18T09:42:41.079Z,26.96
2023-01-18T09:45:24.895Z,25.71
2023-01-18T09:47:55.475Z,23.99
2023-01-18T09:50:22.745Z,23.91
2023-01-18T09:52:59.290Z,23.24
2023-01-18T09:55:54.174Z,22.30
2023-01-18T09:58:50.896Z,19.99
2023-01-18T10:01:22.119Z,19.50
2023-01-18T10:04:00.914Z,20.25
2023-01-18T10:06:32.771Z,21.55
2023-01-18T10:09:07.076Z,22.80
2023-01-18T10:11:47.464Z,23.55
2023-01-18T10:14:24.343Z,24.64
2023-01-18T10:16:58.259Z,24.99
2023-01-18T10:19:30.553Z,25.65
2023-01-18T10:22:12.620Z,26.62
2023-01-18T10:24:45.536Z,27.11
2023-01-18T10:27:40.742Z,27.83
2023-01-18T10:30:15.403Z,28.13
2023-01-18T10:32:50.889Z,28.31
2023-01-18T10:35:26.417Z,29.18
2023-01-18T10:37:57.759Z,29.18
2023-01-18T10:40:25.068Z,29.50
2023-01-18T10:42:56.922Z,29.60
2023-01-18T10:45:29.924Z,29.12
2023-01-18T10:47:59.654Z,27.82
2023-01-18T10:50:26.426Z,27.33
2023-01-18T10:52:53.340Z,27.56
2023-01-18T10:55:21.151Z,27.72
2023-01-18T10:57:54.392Z,28.03
2023-01-18T11:00:34.785Z,28.57
2023-01-18T11:03:05.204Z,29.21
2023-01-18T11:05:40.107Z,30.06
2023-01-18T11:08:12.989Z,30.36
2023-01-18T11:10:41.601Z,30.74
2023-01-18T11:13:47.246Z,30.39
2023-01-18T11:16:18.321Z,30.37
2023-01-18T11:18:59.463Z,29.59
2023-01-18T11:21:33.097Z,29.44
2023-01-18T11:24:07.780Z,26.57
2023-01-18T11:26:34.725Z,24.08
2023-01-18T11:29:07.158Z,24.59
2023-01-18T11:31:46.629Z,24.59
2023-01-18T11:34:35.506Z,24.16
2023-01-18T11:37:04.104Z,25.07
2023-01-18T11:39:30.973Z,25.38
2023-01-18T11:42:26.019Z,24.88
2023-01-18T11:45:25.181Z,24.81
2023-01-18T11:48:09.908Z,25.67
2023-01-18T11:50:57.285Z,25.55
2023-01-18T11:53:43.763Z,25.84
2023-01-18T11:56:19.475Z,26.40
2023-01-18T11:58:47.208Z,27.25
2023-01-18T12:01:57.616Z,27.14
2023-01-18T12:04:43.961Z,26.68
2023-01-18T12:08:08.274Z,26.28
2023-01-18T12:11:14.507Z,26.22
2023-01-18T12:13:47.476Z,26.47
2023-01-18T12:16:22.398Z,25.89
2023-01-18T12:19:01.719Z,26.13
2023-01-18T12:21:37.806Z,26.98
2023-01-18T12:24:16.315Z,26.95
2023-01-18T12:26:48.222Z,27.22
2023-01-18T12:29:50.432Z,28.21
2023-01-18T12:32:48.501Z,28.42
2023-01-18T12:35:48.796Z,28.37
2023-01-18T12:38:31.808Z,28.81
2023-01-18T12:41:05.009Z,29.05
2023-01-18T12:43:54.573Z,29.23
2023-01-18T12:46:36.888Z,29.04
2023-01-18T12:49:18.935Z,29.24
2023-01-18T12:51:51.020Z,29.09
2023-01-18T12:54:41.763Z,29.26
2023-01-18T12:57:09.268Z,28.90
2023-01-18T12:59:43.582Z,28.73
2023-01-18T13:02:38.243Z,28.37
2023-01-18T13:05:43.262Z,28.83
2023-01-18T13:08:21.274Z,29.66
2023-01-18T13:10:48.768Z,29.58
2023-01-18T13:13:21.482Z,29.03
2023-01-18T13:16:09.926Z,29.16
2023-01-18T13:18:57.182Z,29.04
2023-01-18T13:21:27.306Z,28.28
2023-01-18T13:24:12.994Z,28.64
2023-01-18T13:26:40.339Z,28.89
2023-01-18T13:29:10.344Z,29.11
2023-01-18T13:31:38.209Z,29.21
2023-01-18T13:34:17.815Z,28.85
2023-01-18T13:36:46.642Z,29.02
2023-01-18T13:39:19.387Z,29.04
2023-01-18T13:42:04.943Z,30.54
2023-01-18T13:44:46.016Z,30.91
2023-01-18T13:47:45.893Z,31.81
2023-01-18T13:50:40.185Z,32.44
2023-01-18T13:53:13.513Z,32.45
2023-01-18T13:55:55.566Z,32.63
2023-01-18T13:58:30.425Z,32.32
2023-01-18T14:01:03.454Z,32.12
2023-01-18T14:03:38.769Z,32.41
2023-01-18T14:06:10.411Z,32.06
2023-01-18T14:08:47.838Z,32.12
2023-01-18T14:11:27.730Z,31.66
2023-01-18T14:13:55.419Z,30.69
2023-01-18T14:16:32.282Z,30.14
2023-01-18T14:19:21.964Z,29.92
2023-01-18T14:21:56.031Z,28.76
2023-01-18T14:24:58.839Z,27.84
2023-01-18T14:27:32.872Z,28.37
2023-01-18T14:30:05.303Z,27.66
2023-01-18T14:32:37.915Z,27.79
2023-01-18T14:35:25.956Z,27.85
2023-01-18T14:38:16.712Z,28.71
2023-01-18T14:40:50.454Z,28.69
2023-01-18T14:43:29.376Z,28.71
2023-01-18T14:46:03.875Z,28.84
2023-01-18T14:48:35.059Z,28.55
2023-01-18T14:51:02.601Z,28.94
2023-01-18T14:53:38.730Z,28.35
2023-01-18T14:56:14.849Z,28.00
2023-01-18T14:59:05.851Z,27.38
2023-01-18T15:01:39.041Z,27.72
2023-01-18T15:04:19.670Z,27.98
2023-01-18T15:07:14.373Z,26.70
2023-01-18T15:09:43.183Z,25.46
2023-01-18T15:12:14.064Z,24.62
2023-01-18T15:14:50.740Z,26.17
2023-01-18T15:17:24.721Z,23.40
2023-01-18T15:20:08.214Z,23.32
2023-01-18T15:22:40.705Z,24.02
2023-01-18T15:25:18.902Z,24.70
2023-01-18T15:27:53.022Z,24.95
2023-01-18T15:30:24.955Z,24.88
2023-01-18T15:33:02.318Z,23.68
2023-01-18T15:38:05.134Z,22.28
2023-01-18T15:40:35.939Z,22.57
2023-01-18T15:43:29.625Z,22.84
2023-01-18T15:45:58.348Z,23.13
2023-01-18T15:48:28.195Z,22.53
2023-01-18T15:50:57.340Z,22.22
2023-01-18T15:53:27.233Z,23.61
2023-01-18T15:56:03.459Z,22.06
2023-01-18T15:58:46.085Z,22.19
2023-01-18T16:01:13.029Z,23.30
2023-01-18T16:03:49.004Z,22.07
2023-01-18T16:06:34.685Z,22.20
2023-01-18T16:09:12.685Z,23.22
2023-01-18T16:11:53.288Z,23.64
2023-01-18T16:14:29.331Z,23.33
2023-01-18T16:16:59.637Z,23.98
2023-01-18T16:19:31.949Z,24.08
2023-01-18T16:22:17.727Z,22.72
2023-01-18T16:24:51.061Z,22.77
2023-01-18T16:27:28.085Z,21.58
2023-01-18T16:30:00.567Z,21.69
2023-01-18T16:32:29.987Z,21.01
2023-01-18T16:35:03.737Z,21.20
2023-01-18T16:37:31.445Z,20.05
2023-01-18T16:39:58.644Z,20.33
2023-01-18T16:42:37.085Z,20.18
2023-01-18T16:45:05.913Z,20.03
2023-01-18T16:47:33.545Z,20.26
2023-01-18T16:50:00.605Z,21.42
2023-01-18T16:52:27.536Z,23.89
2023-01-18T16:54:57.759Z,25.37
2023-01-18T16:57:24.845Z,26.63
2023-01-18T16:59:52.193Z,27.22
2023-01-18T17:02:19.433Z,27.68
2023-01-18T17:04:46.739Z,28.69
2023-01-18T17:07:13.879Z,28.83
2023-01-18T17:09:48.694Z,29.41
2023-01-18T17:12:16.794Z,30.22
2023-01-18T17:14:44.086Z,30.59
2023-01-18T17:17:14.173Z,30.47
2023-01-18T17:19:44.016Z,30.44
2023-01-18T17:22:11.390Z,30.59
2023-01-18T17:24:38.256Z,30.88
2023-01-18T17:27:05.142Z,30.96
2023-01-18T17:29:32.235Z,30.93
2023-01-18T17:31:59.554Z,31.04
2023-01-18T17:34:29.091Z,31.09
2023-01-18T17:36:58.408Z,31.57
2023-01-18T17:39:37.005Z,31.24
2023-01-18T17:42:14.239Z,31.16
2023-01-18T17:44:43.542Z,31.28
2023-01-18T17:47:10.687Z,31.30
2023-01-18T17:49:37.774Z,31.21
2023-01-18T17:52:05.006Z,31.14
2023-01-18T17:54:34.027Z,31.04
2023-01-18T17:57:01.626Z,30.85
2023-01-18T17:59:29.393Z,30.78
2023-01-18T18:01:56.318Z,30.62
2023-01-18T18:04:23.349Z,30.74
2023-01-18T18:06:54.274Z,30.82
2023-01-18T18:09:21.638Z,31.02
2023-01-18T18:11:48.838Z,31.00
2023-01-18T18:14:16.651Z,30.76
2023-01-18T18:16:44.305Z,31.15
2023-01-18T18:19:15.054Z,31.30
2023-01-18T18:21:43.121Z,31.48
2023-01-18T18:24:10.201Z,31.21
2023-01-18T18:26:37.303Z,31.21
2023-01-18T18:29:04.954Z,31.54
2023-01-18T18:31:31.971Z,31.67
2023-01-18T18:33:59.103Z,31.75
2023-01-18T18:36:27.495Z,31.74
2023-01-18T18:39:01.056Z,31.86
2023-01-18T18:41:28.072Z,32.27
2023-01-18T18:43:54.977Z,32.21
2023-01-18T18:46:22.078Z,32.65
2023-01-18T18:48:49.743Z,32.81
2023-01-18T18:51:16.669Z,33.19
2023-01-18T18:53:44.001Z,33.73
2023-01-18T18:56:10.950Z,33.79
2023-01-18T18:58:38.975Z,33.88
2023-01-18T19:01:06.883Z,34.24
2023-01-18T19:03:43.913Z,34.64
2023-01-18T19:06:11.686Z,34.68
2023-01-18T19:08:38.603Z,34.97
2023-01-18T19:11:05.622Z,35.14
2023-01-18T19:13:32.642Z,34.91
2023-01-18T19:15:59.710Z,35.24
2023-01-18T19:18:26.967Z,35.39
2023-01-18T19:20:54.035Z,35.32
2023-01-18T19:23:21.124Z,35.61
2023-01-18T19:25:49.171Z,35.77
2023-01-18T19:28:17.095Z,35.92
2023-01-18T19:30:44.598Z,35.81
2023-01-18T19:33:13.348Z,36.14
2023-01-18T19:35:43.070Z,36.39
2023-01-18T19:38:10.297Z,36.16
2023-01-18T19:40:37.532Z,36.49
2023-01-18T19:43:04.410Z,36.62
2023-01-18T19:45:32.112Z,36.36
2023-01-18T19:48:01.382Z,36.48
2023-01-18T19:50:29.827Z,36.65
2023-01-18T19:52:57.651Z,36.48
2023-01-18T19:55:25.255Z,36.68
2023-01-18T19:57:56.547Z,36.99
2023-01-18T20:00:26.592Z,36.56
2023-01-18T20:02:53.673Z,36.42
2023-01-18T20:05:20.765Z,36.34
2023-01-18T20:07:48.083Z,36.33
2023-01-18T20:10:20.202Z,36.36
2023-01-18T20:12:48.743Z,36.08
2023-01-18T20:15:17.667Z,36.31
2023-01-18T20:17:45.176Z,36.62
2023-01-18T20:20:18.237Z,36.45
2023-01-18T20:22:48.563Z,36.29
2023-01-18T20:25:15.741Z,36.39
2023-01-18T20:27:42.840Z,36.49
2023-01-18T20:30:10.697Z,36.47
2023-01-18T20:32:41.490Z,36.72
2023-01-18T20:35:12.005Z,37.14
2023-01-18T20:37:39.234Z,37.36
2023-01-18T20:40:06.713Z,37.37
2023-01-18T20:42:33.847Z,37.70
2023-01-18T20:45:01.758Z,37.67
2023-01-18T20:47:29.919Z,37.66
2023-01-18T20:49:56.864Z,38.09
2023-01-18T20:52:23.921Z,38.36
2023-01-18T20:54:50.915Z,38.38
2023-01-18T20:57:18.920Z,38.81
2023-01-18T20:59:45.858Z,38.79
2023-01-18T21:02:12.992Z,38.93
2023-01-18T21:04:40.040Z,38.96
2023-01-18T21:07:07.037Z,39.38
2023-01-18T21:09:33.972Z,39.50
2023-01-18T21:12:01.028Z,39.61
2023-01-18T21:14:27.998Z,39.21
2023-01-18T21:16:55.086Z,39.86
2023-01-18T21:19:22.196Z,39.61
2023-01-18T21:21:49.272Z,40.05
2023-01-18T21:24:17.221Z,39.69
2023-01-18T21:26:44.314Z,39.82
2023-01-18T21:29:11.382Z,39.47
2023-01-18T21:31:40.163Z,39.91
2023-01-18T21:34:08.230Z,40.07
2023-01-18T21:36:35.270Z,40.12
2023-01-18T21:39:02.164Z,40.16
2023-01-18T21:41:47.492Z,40.27
2023-01-18T21:44:33.195Z,40.35
2023-01-18T21:47:01.168Z,40.45
2023-01-18T21:50:15.471Z,40.86
2023-01-18T21:52:52.792Z,40.75
2023-01-18T21:55:20.178Z,41.31
2023-01-18T21:58:07.146Z,41.49
2023-01-18T22:00:40.278Z,41.51
2023-01-18T22:03:07.867Z,41.65
2023-01-18T22:05:34.915Z,42.12
2023-01-18T22:08:02.490Z,42.06
2023-01-18T22:10:30.036Z,42.49
2023-01-18T22:12:57.064Z,42.58
2023-01-18T22:15:24.101Z,42.56
2023-01-18T22:17:51.023Z,42.66
2023-01-18T22:20:18.829Z,42.82
2023-01-18T22:22:46.722Z,42.72
2023-01-18T22:25:14.134Z,43.29
2023-01-18T22:27:41.466Z,42.93
2023-01-18T22:30:11.852Z,43.16
2023-01-18T22:32:38.951Z,43.03
2023-01-18T22:35:06.272Z,43.37
2023-01-18T22:37:33.397Z,43.42
2023-01-18T22:40:00.291Z,43.34
2023-01-18T22:42:27.728Z,43.24
2023-01-18T22:44:54.683Z,43.39
2023-01-18T22:47:21.712Z,43.17
2023-01-18T22:49:48.614Z,42.90
2023-01-18T22:52:15.991Z,43.17
2023-01-18T22:54:42.919Z,43.10
2023-01-18T22:57:10.005Z,43.06
2023-01-18T22:59:40.033Z,42.77
2023-01-18T23:02:07.134Z,42.89
2023-01-18T23:04:36.216Z,43.44
2023-01-18T23:07:03.316Z,43.46
2023-01-18T23:09:30.712Z,43.82
2023-01-18T23:11:57.944Z,43.99
2023-01-18T23:14:43.699Z,44.54
2023-01-18T23:17:32.743Z,44.59
2023-01-18T23:20:00.256Z,44.24
2023-01-18T23:22:27.361Z,45.26
2023-01-18T23:24:54.478Z,44.63
2023-01-18T23:27:21.697Z,45.49
2023-01-18T23:29:57.267Z,45.49
2023-01-18T23:32:30.563Z,46.18
2023-01-18T23:34:58.807Z,45.83
2023-01-18T23:37:27.248Z,45.82
2023-01-18T23:40:12.657Z,45.92
2023-01-18T23:42:58.459Z,46.02
2023-01-18T23:45:44.190Z,45.84
2023-01-18T23:48:33.114Z,45.71
2023-01-18T23:51:19.640Z,45.55
2023-01-18T23:54:06.437Z,45.47
2023-01-18T23:56:35.013Z,45.27
2023-01-18T23:59:02.588Z,45.55
